Главная страница
METAR-TAF:

METAR-TAF

Аэропорты :

Вашингтонский аэропорт имени Даллеса

Вашингтон, Виргиния, США

широта: 38-56-05N, долгота: 077-26-51W, высота над уровнем моря: 95 м

Текущие метеонаблюдения

Эта сводка был подготовлена 13 минут назад, в 01:52 UTC
Ветер 6 Узел от западно-северо-западный
Температура -9°C
Влажность 52%
Давление 1035 hPa
Видимость: 16.1 км
ясное небо

METAR: KIAD 220152Z 29006KT 10SM CLR M09/M17 A3055 RMK AO2 SLP350 T10941167 $

Время: 21:05 (02:05 UTC)

Прогноз

Эта сводка был подготовлена 2 часа и 35 минут назад, в 23:30 UTC
Прогноз действительный с 22-го 00 UTC до 23-го 06 UTC
Ветер 9 Узел от западно-северо-западный
Видимость: 10 км
ясное небо
С 22-го 1400 UTC
Ветер 3 Узел переменных направлений
Видимость: 10 км
небольшая облачность на высоте 14000 фута
С 23-го 0300 UTC
Ветер 7 Узел от южный
Видимость: 10 км
Отдельные облака на высоте 20000 фута

TAF: KIAD 212330Z 2200/2306 30009KT P6SM SKC FM221400 VRB03KT P6SM FEW140 FM230300 17007KT P6SM SCT200

Метеонаблюдения и прогнозы для более 4000 аэропортов (сводки METAR и TAF).

Имеющиеся станции представлены на карте желтыми и красными точками.

Чтобы увидеть название станции, наведите на нее мышь.

Затем щелкните, чтобы увидеть метеонаблюдения и метеопрогнозы.

Управление картой: чтобы увеличить масштаб, щелкните зеленые кнопки с черным крестиком; чтобы уменьшить масштаб, щелкните зеленую кнопку с тире; для просмотра соседних карт щелкайте зеленые стрелки.


METAR-TAF: